createdAt,value
2023-03-17T00:02:24.533Z,3.17
2023-03-17T00:04:52.989Z,3.40
2023-03-17T00:07:20.120Z,3.78
2023-03-17T00:09:47.677Z,5.53
2023-03-17T00:12:16.884Z,4.70
2023-03-17T00:14:50.159Z,6.65
2023-03-17T00:17:17.896Z,2.63
2023-03-17T00:19:48.810Z,5.22
2023-03-17T00:22:27.548Z,3.50
2023-03-17T00:24:58.964Z,3.85
2023-03-17T00:27:26.787Z,4.47
2023-03-17T00:29:55.273Z,2.88
2023-03-17T00:32:26.821Z,4.13
2023-03-17T00:34:54.988Z,4.65
2023-03-17T00:37:22.638Z,4.60
2023-03-17T00:39:53.644Z,4.03
2023-03-17T00:42:22.652Z,4.88
2023-03-17T00:44:50.642Z,2.33
2023-03-17T00:47:19.222Z,3.70
2023-03-17T00:49:48.813Z,4.03
2023-03-17T00:52:16.060Z,3.88
2023-03-17T00:54:43.859Z,3.33
2023-03-17T00:57:13.383Z,2.45
2023-03-17T00:59:43.102Z,3.90
2023-03-17T01:02:14.551Z,2.70
2023-03-17T01:04:49.972Z,4.43
2023-03-17T01:07:21.860Z,3.53
2023-03-17T01:09:50.384Z,5.63
2023-03-17T01:12:18.969Z,2.65
2023-03-17T01:14:46.556Z,4.05
2023-03-17T01:17:17.105Z,3.38
2023-03-17T01:19:46.950Z,3.65
2023-03-17T01:22:14.619Z,4.47
2023-03-17T01:24:42.553Z,4.95
2023-03-17T01:32:09.602Z,1.52
2023-03-17T01:34:37.430Z,2.75
2023-03-17T01:37:04.874Z,3.65
2023-03-17T01:39:32.209Z,5.25
2023-03-17T01:42:02.014Z,3.58
2023-03-17T01:44:30.029Z,3.38
2023-03-17T01:49:36.058Z,4.25
2023-03-17T01:52:19.379Z,4.65
2023-03-17T01:54:50.867Z,4.20
2023-03-17T01:57:54.727Z,3.45
2023-03-17T02:00:24.908Z,3.05
2023-03-17T02:02:55.763Z,3.13
2023-03-17T02:05:26.971Z,3.15
2023-03-17T02:07:56.208Z,1.83
2023-03-17T02:10:27.012Z,3.40
2023-03-17T02:13:04.267Z,4.18
2023-03-17T02:15:41.820Z,4.25
2023-03-17T02:18:10.253Z,3.05
2023-03-17T02:20:37.694Z,4.25
2023-03-17T02:23:07.289Z,2.83
2023-03-17T02:25:37.782Z,3.72
2023-03-17T02:28:14.550Z,2.80
2023-03-17T02:30:43.498Z,4.47
2023-03-17T02:33:12.388Z,5.45
2023-03-17T02:35:41.058Z,3.47
2023-03-17T02:38:08.574Z,4.20
2023-03-17T02:40:35.993Z,3.17
2023-03-17T02:43:04.797Z,3.25
2023-03-17T02:45:32.575Z,5.43
2023-03-17T02:48:01.000Z,4.82
2023-03-17T02:50:29.772Z,3.05
2023-03-17T02:52:57.766Z,3.63
2023-03-17T02:55:25.401Z,4.80
2023-03-17T02:57:52.973Z,2.53
2023-03-17T03:00:22.001Z,4.95
2023-03-17T03:02:50.312Z,4.53
2023-03-17T03:05:18.101Z,4.75
2023-03-17T03:10:14.294Z,2.70
2023-03-17T03:15:10.085Z,2.78
2023-03-17T03:17:44.731Z,3.67
2023-03-17T03:20:21.800Z,3.72
2023-03-17T03:22:49.901Z,2.67
2023-03-17T03:25:24.160Z,3.85
2023-03-17T03:27:55.165Z,2.90
2023-03-17T03:30:26.518Z,2.08
2023-03-17T03:33:07.245Z,3.92
2023-03-17T03:35:39.281Z,2.30
2023-03-17T03:38:08.909Z,3.67
2023-03-17T03:40:41.824Z,3.33
2023-03-17T03:43:22.451Z,4.25
2023-03-17T03:45:58.211Z,2.95
2023-03-17T03:48:27.308Z,5.70
2023-03-17T03:51:12.187Z,4.50
2023-03-17T03:53:40.884Z,3.60
2023-03-17T03:56:11.827Z,5.65
2023-03-17T03:58:50.177Z,5.15
2023-03-17T04:01:19.031Z,2.65
2023-03-17T04:03:49.735Z,4.30
2023-03-17T04:06:21.721Z,2.08
2023-03-17T04:08:57.144Z,3.70
2023-03-17T04:11:27.587Z,3.30
2023-03-17T04:14:01.892Z,3.83
2023-03-17T04:16:28.822Z,4.93
2023-03-17T04:18:55.820Z,4.10
2023-03-17T04:21:22.706Z,2.85
2023-03-17T04:23:57.200Z,4.45
2023-03-17T04:26:44.430Z,3.20
2023-03-17T04:29:16.270Z,3.60
2023-03-17T04:31:46.831Z,3.78
2023-03-17T04:34:16.973Z,4.50
2023-03-17T04:36:46.507Z,4.40
2023-03-17T04:39:15.313Z,6.45
2023-03-17T04:41:42.718Z,6.25
2023-03-17T04:44:13.568Z,4.55
2023-03-17T04:46:41.035Z,5.35
2023-03-17T04:49:08.715Z,4.10
2023-03-17T04:51:37.233Z,2.85
2023-03-17T04:54:05.793Z,5.57
2023-03-17T04:56:33.517Z,4.68
2023-03-17T04:59:04.444Z,3.97
2023-03-17T05:01:32.810Z,4.03
2023-03-17T05:04:00.345Z,4.18
2023-03-17T05:06:28.935Z,2.85
2023-03-17T05:08:56.426Z,4.65
2023-03-17T05:11:25.769Z,3.50
2023-03-17T05:13:53.285Z,5.53
2023-03-17T05:16:21.076Z,5.13
2023-03-17T05:18:49.151Z,5.57
2023-03-17T05:21:17.215Z,3.20
2023-03-17T05:23:45.479Z,4.57
2023-03-17T05:26:13.609Z,3.58
2023-03-17T05:28:41.357Z,2.63
2023-03-17T05:31:10.948Z,3.67
2023-03-17T05:33:39.230Z,2.72
2023-03-17T05:36:07.476Z,2.55
2023-03-17T05:38:35.162Z,4.32
2023-03-17T05:41:03.200Z,5.03
2023-03-17T05:45:57.831Z,3.88
2023-03-17T05:48:25.782Z,2.67
2023-03-17T05:50:56.202Z,5.40
2023-03-17T05:53:24.190Z,4.03
2023-03-17T05:58:21.195Z,9.00
2023-03-17T06:00:57.934Z,8.85
2023-03-17T06:03:25.901Z,8.30
2023-03-17T06:05:53.766Z,10.57
2023-03-17T06:08:21.575Z,7.82
2023-03-17T06:10:48.958Z,7.82
2023-03-17T06:13:16.701Z,5.68
2023-03-17T06:15:54.293Z,6.70
2023-03-17T06:18:21.935Z,6.90
2023-03-17T06:20:49.381Z,5.72
2023-03-17T06:23:17.375Z,7.78
2023-03-17T06:28:12.193Z,3.22
2023-03-17T06:30:40.834Z,6.75
2023-03-17T06:33:08.893Z,3.25
2023-03-17T06:38:04.693Z,2.47
2023-03-17T06:40:32.555Z,2.13
2023-03-17T06:43:00.535Z,1.48
2023-03-17T06:45:28.127Z,4.18
2023-03-17T06:47:55.772Z,3.58
2023-03-17T06:50:23.687Z,4.80
2023-03-17T06:55:19.568Z,3.05
2023-03-17T06:57:49.137Z,1.95
2023-03-17T07:00:18.779Z,3.08
2023-03-17T07:02:46.576Z,3.85
2023-03-17T07:05:14.426Z,1.40
2023-03-17T07:07:42.480Z,2.20
2023-03-17T07:10:11.412Z,2.85
2023-03-17T07:12:38.998Z,2.95
2023-03-17T07:15:07.013Z,5.07
2023-03-17T07:17:34.717Z,1.73
2023-03-17T07:20:02.118Z,3.25
2023-03-17T07:22:29.722Z,2.60
2023-03-17T07:24:57.787Z,2.50
2023-03-17T07:29:55.191Z,2.17
2023-03-17T07:32:23.657Z,2.67
2023-03-17T07:34:51.477Z,3.70
2023-03-17T07:37:27.246Z,1.45
2023-03-17T07:39:54.575Z,4.13
2023-03-17T07:42:24.604Z,3.67
2023-03-17T07:44:52.111Z,4.20
2023-03-17T07:47:19.425Z,3.78
2023-03-17T07:49:47.620Z,4.63
2023-03-17T07:54:43.266Z,2.38
2023-03-17T07:57:14.000Z,4.30
2023-03-17T07:59:42.119Z,2.28
2023-03-17T08:04:42.674Z,3.25
2023-03-17T08:07:11.320Z,4.35
2023-03-17T08:09:38.780Z,4.47
2023-03-17T08:12:07.244Z,2.65
2023-03-17T08:14:35.161Z,2.97
2023-03-17T08:19:37.256Z,4.05
2023-03-17T08:22:04.933Z,4.80
2023-03-17T08:24:32.980Z,3.97
2023-03-17T08:27:01.033Z,3.97
2023-03-17T08:32:10.011Z,3.88
2023-03-17T08:34:37.926Z,3.60
2023-03-17T08:37:10.118Z,4.60
2023-03-17T08:39:39.523Z,4.57
2023-03-17T08:42:07.765Z,5.07
2023-03-17T08:44:44.066Z,7.15
2023-03-17T08:47:12.333Z,4.88
2023-03-17T08:49:40.203Z,4.28
2023-03-17T08:52:08.686Z,5.03
2023-03-17T08:54:39.049Z,5.47
2023-03-17T08:57:06.368Z,5.78
2023-03-17T08:59:34.702Z,6.82
2023-03-17T09:02:02.571Z,4.05
2023-03-17T09:04:30.031Z,3.30
2023-03-17T09:07:06.602Z,4.00
2023-03-17T09:09:35.697Z,4.72
2023-03-17T09:12:06.350Z,5.47
2023-03-17T09:14:42.767Z,3.58
2023-03-17T09:17:11.750Z,4.68
2023-03-17T09:19:39.123Z,4.05
2023-03-17T09:22:07.100Z,4.55
2023-03-17T09:27:02.375Z,5.75
2023-03-17T09:29:29.481Z,4.40
2023-03-17T09:32:00.929Z,5.60
2023-03-17T09:34:32.023Z,4.03
2023-03-17T09:37:00.126Z,5.25
2023-03-17T09:39:27.827Z,5.35
2023-03-17T09:42:23.365Z,4.45
2023-03-17T09:44:53.896Z,6.38
2023-03-17T09:47:41.632Z,7.35
2023-03-17T09:50:16.240Z,4.72
2023-03-17T09:52:43.826Z,6.53
2023-03-17T09:55:25.423Z,4.53
2023-03-17T09:57:59.750Z,7.28
2023-03-17T10:00:33.969Z,5.22
2023-03-17T10:03:02.485Z,5.25
2023-03-17T10:05:32.788Z,4.28
2023-03-17T10:08:37.059Z,6.35
2023-03-17T10:11:44.278Z,6.57
2023-03-17T10:14:35.772Z,4.50
2023-03-17T10:17:16.132Z,4.38
2023-03-17T10:19:53.978Z,2.58
2023-03-17T10:25:04.450Z,3.10
2023-03-17T10:27:37.435Z,2.83
2023-03-17T10:30:14.322Z,2.13
2023-03-17T10:32:43.098Z,3.97
2023-03-17T10:35:12.444Z,4.32
2023-03-17T10:37:42.564Z,5.30
2023-03-17T10:40:21.414Z,4.15
2023-03-17T10:42:53.659Z,2.80
2023-03-17T10:45:40.907Z,8.27
2023-03-17T10:48:11.189Z,3.75
2023-03-17T10:50:41.562Z,4.18
2023-03-17T10:53:28.654Z,5.43
2023-03-17T10:56:12.026Z,5.05
2023-03-17T10:58:52.546Z,3.55
2023-03-17T11:01:47.492Z,5.97
2023-03-17T11:04:28.633Z,4.15
2023-03-17T11:07:01.261Z,3.65
2023-03-17T11:09:39.421Z,3.97
2023-03-17T11:12:19.453Z,4.55
2023-03-17T11:14:48.876Z,4.10
2023-03-17T11:17:43.115Z,4.65
2023-03-17T11:20:27.401Z,3.85
2023-03-17T11:23:22.856Z,3.88
2023-03-17T11:26:03.885Z,4.13
2023-03-17T11:28:41.640Z,4.20
2023-03-17T11:31:16.986Z,2.92
2023-03-17T11:33:58.728Z,6.15
2023-03-17T11:36:51.289Z,3.95
2023-03-17T11:39:28.279Z,3.72
2023-03-17T11:42:19.026Z,7.97
2023-03-17T11:45:16.995Z,4.72
2023-03-17T11:48:02.836Z,9.10
2023-03-17T11:50:55.635Z,7.65
2023-03-17T11:53:28.501Z,5.38
2023-03-17T11:56:00.272Z,3.78
2023-03-17T11:58:40.122Z,4.75
2023-03-17T12:01:16.801Z,4.90
2023-03-17T12:03:52.390Z,5.03
2023-03-17T12:06:32.872Z,4.55
2023-03-17T12:09:26.586Z,5.20
2023-03-17T12:11:56.365Z,3.80
2023-03-17T12:14:32.948Z,3.38
2023-03-17T12:17:09.613Z,2.97
2023-03-17T12:19:43.473Z,5.05
2023-03-17T12:22:47.546Z,2.80
2023-03-17T12:25:33.946Z,3.90
2023-03-17T12:28:18.028Z,4.63
2023-03-17T12:31:00.526Z,5.43
2023-03-17T12:33:42.604Z,4.20
2023-03-17T12:36:15.712Z,4.63
2023-03-17T12:39:06.161Z,3.70
2023-03-17T12:41:45.596Z,3.40
2023-03-17T12:44:26.840Z,6.10
2023-03-17T12:47:07.188Z,5.82
2023-03-17T12:49:43.642Z,4.65
2023-03-17T12:52:39.756Z,5.43
2023-03-17T12:55:14.085Z,4.85
2023-03-17T12:57:44.783Z,3.92
2023-03-17T13:00:28.897Z,2.78
2023-03-17T13:03:15.188Z,5.53
2023-03-17T13:05:48.342Z,4.78
2023-03-17T13:08:24.865Z,4.10
2023-03-17T13:11:12.406Z,3.65
2023-03-17T13:13:55.130Z,3.83
2023-03-17T13:16:31.140Z,6.57
2023-03-17T13:19:15.606Z,4.95
2023-03-17T13:21:51.279Z,4.93
2023-03-17T13:24:18.996Z,5.10
2023-03-17T13:29:45.992Z,5.18
2023-03-17T13:32:19.328Z,3.58
2023-03-17T13:34:53.261Z,10.45
2023-03-17T13:37:49.911Z,5.20
2023-03-17T13:40:22.331Z,3.90
2023-03-17T13:43:02.719Z,3.47
2023-03-17T13:45:44.530Z,4.72
2023-03-17T13:48:29.753Z,3.70
2023-03-17T13:51:15.026Z,5.18
2023-03-17T13:53:49.633Z,3.08
2023-03-17T13:56:54.113Z,5.57
2023-03-17T13:59:54.042Z,2.80
2023-03-17T14:02:24.045Z,6.18
2023-03-17T14:04:53.927Z,5.10
2023-03-17T14:07:26.429Z,4.65
2023-03-17T14:10:00.202Z,4.45
2023-03-17T14:12:52.301Z,5.32
2023-03-17T14:15:32.422Z,5.63
2023-03-17T14:18:08.540Z,3.88
2023-03-17T14:20:36.410Z,6.43
2023-03-17T14:25:38.706Z,2.90
2023-03-17T14:28:14.428Z,4.07
2023-03-17T14:30:57.425Z,3.97
2023-03-17T14:33:31.165Z,5.45
2023-03-17T14:36:01.420Z,4.40
2023-03-17T14:38:34.754Z,4.88
2023-03-17T14:41:30.361Z,3.80
2023-03-17T14:44:00.718Z,5.43
2023-03-17T14:46:33.898Z,2.88
2023-03-17T14:49:06.108Z,4.38
2023-03-17T14:51:39.573Z,5.15
2023-03-17T14:54:22.768Z,4.00
2023-03-17T14:57:10.122Z,8.13
2023-03-17T14:59:41.161Z,3.60
2023-03-17T15:02:30.644Z,4.75
2023-03-17T15:05:03.265Z,3.95
2023-03-17T15:07:38.798Z,2.85
2023-03-17T15:10:16.195Z,4.13
2023-03-17T15:12:46.508Z,3.25
2023-03-17T15:15:35.076Z,5.82
2023-03-17T15:18:13.869Z,4.57
2023-03-17T15:20:44.542Z,2.95
2023-03-17T15:23:27.959Z,3.20
2023-03-17T15:25:57.319Z,4.28
2023-03-17T15:28:36.260Z,4.05
2023-03-17T15:31:14.190Z,5.07
2023-03-17T15:36:33.537Z,24.80
2023-03-17T15:39:06.297Z,21.60
2023-03-17T15:41:33.972Z,14.30
2023-03-17T15:44:04.034Z,11.73
2023-03-17T15:46:34.299Z,14.95
2023-03-17T15:49:01.606Z,9.38
2023-03-17T15:51:28.860Z,8.07
2023-03-17T15:53:56.029Z,6.00
2023-03-17T15:56:23.404Z,6.03
2023-03-17T15:58:52.994Z,14.82
2023-03-17T16:01:21.031Z,7.90
2023-03-17T16:06:22.704Z,7.43
2023-03-17T16:08:51.212Z,10.77
2023-03-17T16:11:23.108Z,10.43
2023-03-17T16:13:50.263Z,10.07
2023-03-17T16:16:40.357Z,8.77
2023-03-17T16:19:18.899Z,9.32
2023-03-17T16:21:46.879Z,31.38
2023-03-17T16:26:45.339Z,14.68
2023-03-17T16:29:17.791Z,16.08
2023-03-17T16:31:51.478Z,17.65
2023-03-17T16:34:25.008Z,14.82
2023-03-17T16:36:54.698Z,6.45
2023-03-17T16:39:23.808Z,6.05
2023-03-17T16:41:51.637Z,14.80
2023-03-17T16:44:21.858Z,8.63
2023-03-17T16:46:49.752Z,11.77
2023-03-17T16:49:20.735Z,9.50
2023-03-17T16:51:50.179Z,13.30
2023-03-17T16:54:20.312Z,11.75
2023-03-17T16:56:47.931Z,7.00
2023-03-17T16:59:23.862Z,5.10
2023-03-17T17:01:51.970Z,4.40
2023-03-17T17:04:19.792Z,4.32
2023-03-17T17:06:48.319Z,5.15
2023-03-17T17:09:20.347Z,3.00
2023-03-17T17:11:48.197Z,6.95
2023-03-17T17:19:20.629Z,14.43
2023-03-17T17:21:48.357Z,15.50
2023-03-17T17:24:16.297Z,13.02
2023-03-17T17:29:15.638Z,5.13
2023-03-17T17:34:12.639Z,5.65
2023-03-17T17:39:10.048Z,5.68
2023-03-17T17:41:37.742Z,4.90
2023-03-17T17:44:06.562Z,2.85
2023-03-17T17:46:35.345Z,5.07
2023-03-17T17:49:03.071Z,6.00
2023-03-17T17:51:36.014Z,7.55
2023-03-17T17:54:04.220Z,5.38
2023-03-17T17:56:37.135Z,5.00
2023-03-17T17:59:07.894Z,9.70
2023-03-17T18:01:39.591Z,8.10
2023-03-17T18:04:07.413Z,6.90
2023-03-17T18:06:35.075Z,6.45
2023-03-17T18:09:09.158Z,6.03
2023-03-17T18:11:41.484Z,4.95
2023-03-17T18:14:11.922Z,8.02
2023-03-17T18:16:49.404Z,5.25
2023-03-17T18:19:23.441Z,7.80
2023-03-17T18:21:55.592Z,7.40
2023-03-17T18:24:34.025Z,7.93
2023-03-17T18:27:05.381Z,4.55
2023-03-17T18:29:37.762Z,10.10
2023-03-17T18:32:09.717Z,4.97
2023-03-17T18:34:47.598Z,8.57
2023-03-17T18:39:52.496Z,10.20
2023-03-17T18:42:32.966Z,10.85
2023-03-17T18:45:02.324Z,10.52
2023-03-17T18:47:30.226Z,7.97
2023-03-17T18:50:01.955Z,8.23
2023-03-17T18:52:39.689Z,8.82
2023-03-17T18:55:08.434Z,7.53
2023-03-17T18:57:37.610Z,8.05
2023-03-17T19:00:09.732Z,9.00
2023-03-17T19:02:44.184Z,7.00
2023-03-17T19:05:16.041Z,7.38
2023-03-17T19:07:47.503Z,8.35
2023-03-17T19:10:24.643Z,7.60
2023-03-17T19:12:54.163Z,9.60
2023-03-17T19:15:24.938Z,8.55
2023-03-17T19:17:58.302Z,7.30
2023-03-17T19:20:31.629Z,9.40
2023-03-17T19:23:04.909Z,6.72
2023-03-17T19:25:37.802Z,7.20
2023-03-17T19:28:07.721Z,9.00
2023-03-17T19:30:35.848Z,6.75
2023-03-17T19:33:09.933Z,6.60
2023-03-17T19:35:38.053Z,6.60
2023-03-17T19:38:07.660Z,8.73
2023-03-17T19:40:37.935Z,9.15
2023-03-17T19:43:10.097Z,7.95
2023-03-17T19:45:38.585Z,8.30
2023-03-17T19:48:09.733Z,7.88
2023-03-17T19:50:38.510Z,7.18
2023-03-17T19:53:06.928Z,6.60
2023-03-17T19:55:35.379Z,6.82
2023-03-17T19:58:07.202Z,11.18
2023-03-17T20:00:38.407Z,8.15
2023-03-17T20:03:13.143Z,4.63
2023-03-17T20:05:41.481Z,5.80
2023-03-17T20:08:10.167Z,7.40
2023-03-17T20:10:49.535Z,5.80
2023-03-17T20:13:29.366Z,8.82
2023-03-17T20:16:02.507Z,7.65
2023-03-17T20:18:39.521Z,8.45
2023-03-17T20:21:13.479Z,9.32
2023-03-17T20:23:41.836Z,6.60
2023-03-17T20:26:09.976Z,10.50
2023-03-17T20:28:42.359Z,6.97
2023-03-17T20:31:10.186Z,6.32
2023-03-17T20:33:37.752Z,11.38
2023-03-17T20:36:16.641Z,10.38
2023-03-17T20:38:44.983Z,8.48
2023-03-17T20:41:15.400Z,7.80
2023-03-17T20:43:44.047Z,6.22
2023-03-17T20:46:21.253Z,10.50
2023-03-17T20:48:49.596Z,7.82
2023-03-17T20:51:18.723Z,5.50
2023-03-17T20:53:53.813Z,8.25
2023-03-17T20:56:24.250Z,8.50
2023-03-17T20:58:53.707Z,6.97
2023-03-17T21:01:22.805Z,7.40
2023-03-17T21:03:52.592Z,10.00
2023-03-17T21:06:21.100Z,8.20
2023-03-17T21:08:49.809Z,7.95
2023-03-17T21:11:19.525Z,5.05
2023-03-17T21:13:48.232Z,6.45
2023-03-17T21:16:28.392Z,6.78
2023-03-17T21:18:58.316Z,4.32
2023-03-17T21:21:27.754Z,5.60
2023-03-17T21:23:59.303Z,5.55
2023-03-17T21:26:31.019Z,8.90
2023-03-17T21:28:59.562Z,6.22
2023-03-17T21:31:30.350Z,5.35
2023-03-17T21:33:58.274Z,9.48
2023-03-17T21:36:26.490Z,6.00
2023-03-17T21:38:54.149Z,9.90
2023-03-17T21:41:33.969Z,7.90
2023-03-17T21:44:03.730Z,5.47
2023-03-17T21:46:32.363Z,5.25
2023-03-17T21:49:01.981Z,5.05
2023-03-17T21:51:32.929Z,5.20
2023-03-17T21:56:55.915Z,5.22
2023-03-17T21:59:44.143Z,2.85
2023-03-17T22:05:14.970Z,5.78
2023-03-17T22:08:23.232Z,3.50
2023-03-17T22:11:27.613Z,7.35
2023-03-17T22:17:59.138Z,5.47
2023-03-17T22:23:42.604Z,4.35
2023-03-17T22:23:54.360Z,3.55
2023-03-17T22:26:38.567Z,6.85
2023-03-17T22:29:17.163Z,5.38
2023-03-17T22:34:47.248Z,5.32
2023-03-17T22:37:26.946Z,5.28
2023-03-17T22:40:10.660Z,5.60
2023-03-17T22:43:06.444Z,9.18
2023-03-17T22:48:41.995Z,5.18
2023-03-17T22:51:35.753Z,4.68
2023-03-17T22:54:14.897Z,3.28
2023-03-17T22:56:58.993Z,6.60
2023-03-17T23:00:18.693Z,5.28
2023-03-17T23:03:03.982Z,5.53
2023-03-17T23:05:57.851Z,3.83
2023-03-17T23:11:43.640Z,6.22
2023-03-17T23:20:25.527Z,6.13
2023-03-17T23:23:00.977Z,5.90
2023-03-17T23:25:40.162Z,6.53
2023-03-17T23:28:48.100Z,4.57
2023-03-17T23:32:00.213Z,4.93
2023-03-17T23:34:33.395Z,4.90
2023-03-17T23:37:19.393Z,7.20
2023-03-17T23:39:47.393Z,6.45
2023-03-17T23:42:55.920Z,8.20
2023-03-17T23:48:06.349Z,48.78
2023-03-17T23:50:49.211Z,30.98
2023-03-17T23:54:02.370Z,29.67
2023-03-17T23:57:01.517Z,25.50
2023-03-17T23:59:52.089Z,18.05
